Time;durP1;ratioP1;P1;durP2;ratioP2;P2;SDS_P1;SDS_P2;PMS_P1;PMS_P2;Temp;Humidity;BMP_temperature;BMP_pressure;BME280_temperature;BME280_humidity;BME280_pressure;Samples;Min_cycle;Max_cycle;Signal;HPM_P1;HPM_P2
2023/02/21 12:36:16;;;;;;;;;30.40;29.20;;;;;;;;5125275;27;13466;-76
2023/02/21 12:38:48;;;;;;;;;29.75;27.50;;;;;;;;5119908;27;13569;-75
2023/02/21 12:41:16;;;;;;;;;28.25;28.00;;;;;;;;5103764;28;13661;-75
2023/02/21 12:43:50;;;;;;;;;25.50;24.50;;;;;;;;5102132;28;13674;-75
2023/02/21 12:46:30;;;;;;;;;35.00;30.00;;;;;;;;5104521;28;13534;-77
2023/02/21 12:48:55;;;;;;;;;27.75;26.00;;;;;;;;4959335;27;13529;-76
2023/02/21 12:51:24;;;;;;;;;27.67;27.00;;;;;;;;5061509;28;13529;-80
2023/02/21 12:53:56;;;;;;;;;27.67;25.00;;;;;;;;5045340;27;13544;-79
2023/02/21 12:56:27;;;;;;;;;30.50;27.75;;;;;;;;5083193;28;13425;-74
2023/02/21 12:59:03;;;;;;;;;28.80;28.20;;;;;;;;5082966;28;14479;-71
2023/02/21 13:01:33;;;;;;;;;26.50;26.25;;;;;;;;5081221;28;13598;-74
2023/02/21 13:03:58;;;;;;;;;33.50;31.00;;;;;;;;5082268;28;13567;-73
2023/02/21 13:06:23;;;;;;;;;27.00;26.00;;;;;;;;5051223;28;13630;-74
2023/02/21 13:08:54;;;;;;;;;26.67;23.00;;;;;;;;5083802;28;13517;-73
2023/02/21 13:11:19;;;;;;;;;22.00;21.50;;;;;;;;5082176;28;13570;-73
2023/02/21 13:13:44;;;;;;;;;27.50;24.75;;;;;;;;5081229;28;13599;-74
2023/02/21 13:16:11;;;;;;;;;25.67;23.67;;;;;;;;5080609;28;13569;-74
2023/02/21 13:18:46;;;;;;;;;33.00;27.00;;;;;;;;5080222;28;13640;-77
2023/02/21 13:21:19;;;;;;;;;30.80;23.80;;;;;;;;5041856;27;13502;-80
2023/02/21 13:23:55;;;;;;;;;24.25;19.75;;;;;;;;5082736;28;13533;-75
2023/02/21 13:26:23;;;;;;;;;24.60;21.20;;;;;;;;5080032;28;13819;-74
2023/02/21 13:28:52;;;;;;;;;24.80;21.60;;;;;;;;5082664;28;13529;-74
2023/02/21 13:31:44;;;;;;;;;24.75;21.25;;;;;;;;5082750;28;13578;-75
2023/02/21 13:34:13;;;;;;;;;27.60;22.40;;;;;;;;5080202;28;14344;-72
2023/02/21 13:36:38;;;;;;;;;21.20;18.60;;;;;;;;5080221;28;14288;-72
2023/02/21 13:39:09;;;;;;;;;21.00;18.00;;;;;;;;5081293;28;13514;-72
2023/02/21 13:41:55;;;;;;;;;17.00;17.00;;;;;;;;5079595;28;13436;-72
2023/02/21 13:44:29;;;;;;;;;24.60;21.60;;;;;;;;5081130;28;13639;-71
2023/02/21 13:47:03;;;;;;;;;27.75;25.50;;;;;;;;5070281;28;13578;-73
2023/02/21 13:49:49;;;;;;;;;29.25;23.75;;;;;;;;5068380;28;13535;-74
2023/02/21 13:52:23;;;;;;;;;17.00;17.00;;;;;;;;5013416;28;14380;-75
2023/02/21 13:55:07;;;;;;;;;20.80;20.80;;;;;;;;5058847;28;13585;-74
2023/02/21 13:57:34;;;;;;;;;21.75;19.25;;;;;;;;5046834;28;13566;-73
2023/02/21 14:00:19;;;;;;;;;23.75;21.50;;;;;;;;5047502;28;13619;-73
2023/02/21 14:02:58;;;;;;;;;23.60;19.80;;;;;;;;5048486;28;13572;-71
2023/02/21 14:05:24;;;;;;;;;22.20;18.40;;;;;;;;5048210;28;15198;-73
2023/02/21 14:07:55;;;;;;;;;26.25;19.50;;;;;;;;5048452;28;13647;-76
2023/02/21 14:10:37;;;;;;;;;21.50;17.00;;;;;;;;5063491;28;13543;-74
2023/02/21 14:13:21;;;;;;;;;19.00;18.00;;;;;;;;5048448;28;13527;-75
2023/02/21 14:15:48;;;;;;;;;23.75;19.00;;;;;;;;5048015;28;13561;-76
2023/02/21 14:18:19;;;;;;;;;22.80;19.20;;;;;;;;5048190;28;14503;-74
2023/02/21 14:20:45;;;;;;;;;23.75;21.50;;;;;;;;5048197;28;13676;-75
2023/02/21 14:23:16;;;;;;;;;22.75;22.25;;;;;;;;5048496;28;13635;-76
2023/02/21 14:25:52;;;;;;;;;22.25;20.25;;;;;;;;5048074;28;14135;-75
2023/02/21 14:28:36;;;;;;;;;20.60;17.40;;;;;;;;5047694;28;13622;-74
2023/02/21 14:31:02;;;;;;;;;20.80;20.80;;;;;;;;5048034;28;13785;-74
2023/02/21 14:33:29;;;;;;;;;20.00;20.00;;;;;;;;5047604;28;13590;-74
2023/02/21 14:36:02;;;;;;;;;23.00;21.25;;;;;;;;5047733;28;13541;-74
2023/02/21 14:38:39;;;;;;;;;20.00;20.00;;;;;;;;5041084;28;13683;-76
2023/02/21 14:41:04;;;;;;;;;21.25;18.50;;;;;;;;5037700;28;13587;-78
2023/02/21 14:43:51;;;;;;;;;22.50;18.75;;;;;;;;5036330;28;13581;-77
2023/02/21 14:46:16;;;;;;;;;29.25;22.50;;;;;;;;5036512;28;13600;-80
2023/02/21 14:49:07;;;;;;;;;21.67;20.00;;;;;;;;5035223;28;13595;-79
2023/02/21 14:51:56;;;;;;;;;22.00;19.25;;;;;;;;5038009;28;13573;-80
2023/02/21 14:54:36;;;;;;;;;19.40;18.00;;;;;;;;5037283;28;13576;-79
2023/02/21 14:57:04;;;;;;;;;18.00;18.00;;;;;;;;5036551;28;14353;-78
2023/02/21 14:59:56;;;;;;;;;26.60;23.80;;;;;;;;5036931;28;13770;-78
2023/02/21 15:02:25;;;;;;;;;24.00;22.00;;;;;;;;5026336;28;13639;-75
2023/02/21 15:04:56;;;;;;;;;25.80;20.60;;;;;;;;5033365;28;13695;-75
2023/02/21 15:07:40;;;;;;;;;23.75;20.50;;;;;;;;5025720;28;13583;-75
2023/02/21 15:10:06;;;;;;;;;24.80;23.00;;;;;;;;5043488;28;13569;-81
2023/02/21 15:12:34;;;;;;;;;26.25;26.25;;;;;;;;5035370;28;13711;-78
2023/02/21 15:15:00;;;;;;;;;25.00;22.00;;;;;;;;5025278;28;13611;-79
2023/02/21 15:17:25;;;;;;;;;28.00;24.00;;;;;;;;5044365;28;13559;-80
2023/02/21 15:20:00;;;;;;;;;24.00;24.00;;;;;;;;5037895;28;14589;-76
2023/02/21 15:22:26;;;;;;;;;31.40;26.40;;;;;;;;5026828;28;14335;-75
2023/02/21 15:24:57;;;;;;;;;30.25;27.50;;;;;;;;5034230;28;13699;-78
2023/02/21 15:27:23;;;;;;;;;27.25;24.00;;;;;;;;5035596;28;13683;-77
2023/02/21 15:38:07;;;;;;;;;;;;;;;;;;5109122;27;7516;-79
2023/02/21 15:40:32;;;;;;;;;;;;;;;;;;5109468;28;7550;-77
2023/02/21 15:42:58;;;;;;;;;;;;;;;;;;5109809;28;7548;-78
2023/02/21 15:45:23;;;;;;;;;;;;;;;;;;4986046;27;10972;-80
2023/02/21 15:48:26;;;;;;;;;;;;;;;;;;5109672;27;7527;-81
2023/02/21 15:50:51;;;;;;;;;;;;;;;;;;5109669;28;7532;-84
2023/02/21 15:53:16;;;;;;;;;;;;;;;;;;5054155;27;10249;-84
2023/02/21 15:55:43;;;;;;;;;;;;;;;;;;5069126;28;7555;-84
2023/02/21 15:58:08;;;;;;;;;;;;;;;;;;5068609;28;7538;-83
2023/02/21 16:00:33;;;;;;;;;;;;;;;;;;5067479;28;7623;-84
2023/02/21 16:02:58;;;;;;;;;;;;;;;;;;5067714;28;8039;-83
2023/02/21 16:05:24;;;;;;;;;;;;;;;;;;5067341;28;7537;-84
2023/02/21 16:07:52;;;;;;;;;;;;;;;;;;5066997;28;7525;-83
2023/02/21 16:10:18;;;;;;;;;;;;;;;;;;5047119;28;7529;-84
2023/02/21 16:12:43;;;;;;;;;;;;;;;;;;5047192;28;7544;-83
2023/02/21 16:15:08;;;;;;;;;;;;;;;;;;5049349;28;7532;-82
2023/02/21 16:17:33;;;;;;;;;;;;;;;;;;5049255;28;7529;-83
2023/02/21 16:19:58;;;;;;;;;;;;;;;;;;5049202;28;7517;-83
2023/02/21 16:22:23;;;;;;;;;;;;;;;;;;5049053;28;7591;-84
2023/02/21 16:24:48;;;;;;;;;;;;;;;;;;5081092;28;7518;-84
2023/02/21 16:27:13;;;;;;;;;;;;;;;;;;5049169;28;7588;-83
2023/02/21 16:29:39;;;;;;;;;;;;;;;;;;5048951;28;7525;-81
2023/02/21 16:32:04;;;;;;;;;;;;;;;;;;5048763;28;7624;-82
2023/02/21 16:34:29;;;;;;;;;;;;;;;;;;5048678;28;7524;-81
2023/02/21 16:36:54;;;;;;;;;;;;;;;;;;5048597;28;7999;-81
2023/02/21 16:39:19;;;;;;;;;;;;;;;;;;5060914;28;7521;-82
2023/02/21 16:41:44;;;;;;;;;;;;;;;;;;5067916;28;7545;-81
2023/02/21 16:44:10;;;;;;;;;;;;;;;;;;5068325;28;7525;-81
2023/02/21 16:46:35;;;;;;;;;;;;;;;;;;5067940;28;7545;-81
2023/02/21 16:49:00;;;;;;;;;;;;;;;;;;5068207;28;7528;-83
2023/02/21 16:51:32;;;;;;;;;;;;;;;;;;5066844;28;7547;-81
2023/02/21 16:53:57;;;;;;;;;;;;;;;;;;5066589;28;7540;-80
2023/02/21 16:56:22;;;;;;;;;;;;;;;;;;5067961;28;7545;-81
2023/02/21 16:58:48;;;;;;;;;;;;;;;;;;5060096;28;7529;-81
2023/02/21 17:01:13;;;;;;;;;;;;;;;;;;5054899;28;7996;-82
2023/02/21 17:03:41;;;;;;;;;;;;;;;;;;5055004;28;7532;-81
2023/02/21 17:06:07;;;;;;;;;;;;;;;;;;5054922;28;7528;-82
2023/02/21 17:08:32;;;;;;;;;;;;;;;;;;5054888;28;7620;-83
2023/02/21 17:10:57;;;;;;;;;;;;;;;;;;5054821;28;7533;-82
2023/02/21 17:13:22;;;;;;;;;;;;;;;;;;5054688;28;7524;-80
2023/02/21 17:15:47;;;;;;;;;;;;;;;;;;5054735;28;7545;-82
2023/02/21 17:18:12;;;;;;;;;;;;;;;;;;5053221;28;7536;-82
2023/02/21 17:20:37;;;;;;;;;;;;;;;;;;5054799;28;7525;-82
2023/02/21 17:23:02;;;;;;;;;;;;;;;;;;5054718;28;7517;-82
2023/02/21 17:25:28;;;;;;;;;;;;;;;;;;5054484;28;7521;-81
2023/02/21 17:27:53;;;;;;;;;;;;;;;;;;5054945;28;7541;-82
2023/02/21 17:30:18;;;;;;;;;;;;;;;;;;5053231;28;7521;-82
2023/02/21 17:32:45;;;;;;;;;;;;;;;;;;5054328;28;7533;-81
2023/02/21 17:35:12;;;;;;;;;;;;;;;;;;5054500;28;7525;-82
2023/02/21 17:37:37;;;;;;;;;;;;;;;;;;5053754;28;7525;-82
2023/02/21 17:40:02;;;;;;;;;;;;;;;;;;5054157;28;7517;-82
2023/02/21 17:42:27;;;;;;;;;;;;;;;;;;5054146;28;7529;-83
2023/02/21 17:44:52;;;;;;;;;;;;;;;;;;5054070;28;7578;-82
2023/02/21 17:47:17;;;;;;;;;;;;;;;;;;5053812;28;7532;-82
2023/02/21 17:49:43;;;;;;;;;;;;;;;;;;5054178;28;8087;-83
2023/02/21 17:52:08;;;;;;;;;;;;;;;;;;5053879;28;7572;-82
2023/02/21 17:54:33;;;;;;;;;;;;;;;;;;5054102;28;7521;-82
2023/02/21 17:56:58;;;;;;;;;;;;;;;;;;5052230;28;7604;-83
2023/02/21 17:59:23;;;;;;;;;;;;;;;;;;5052608;28;7520;-82
2023/02/21 18:01:48;;;;;;;;;;;;;;;;;;5054053;28;7525;-84
2023/02/21 18:04:14;;;;;;;;;;;;;;;;;;5053850;28;7577;-82
2023/02/21 18:06:39;;;;;;;;;;;;;;;;;;5053693;28;7578;-81
2023/02/21 18:09:06;;;;;;;;;;;;;;;;;;5053611;28;7525;-81
2023/02/21 18:11:31;;;;;;;;;;;;;;;;;;5051534;28;7529;-83
2023/02/21 18:13:56;;;;;;;;;;;;;;;;;;5052214;28;7513;-81
2023/02/21 18:16:21;;;;;;;;;;;;;;;;;;5053104;28;7529;-80
2023/02/21 18:18:46;;;;;;;;;;;;;;;;;;5053397;28;7525;-78
2023/02/21 18:22:49;;;;;;;;;25.25;23.50;;;;;;;;5003711;27;13380;-75
2023/02/21 18:25:15;;;;;;;;;24.25;23.75;;;;;;;;5047277;28;11534;-74
2023/02/21 18:27:41;;;;;;;;;25.75;23.00;;;;;;;;5047707;28;8795;-76
2023/02/21 18:30:06;;;;;;;;;25.50;25.50;;;;;;;;5047430;28;11642;-77
2023/02/21 18:32:32;;;;;;;;;26.75;21.50;;;;;;;;5047475;28;8854;-76
2023/02/21 18:34:58;;;;;;;;;23.25;19.00;;;;;;;;4990950;28;10525;-75
2023/02/21 18:37:24;;;;;;;;;26.50;23.25;;;;;;;;5027219;28;8818;-75
2023/02/21 18:39:51;;;;;;;;;23.50;21.25;;;;;;;;5010689;28;12333;-76
2023/02/21 18:42:21;;;;;;;;;24.75;21.00;;;;;;;;4957428;28;10503;-75
2023/02/21 18:44:49;;;;;;;;;29.50;26.75;;;;;;;;5053492;28;11590;-76
2023/02/21 18:47:15;;;;;;;;;35.00;31.50;;;;;;;;5025556;28;11583;-75
2023/02/21 18:49:44;;;;;;;;;37.00;29.50;;;;;;;;5041949;28;11589;-74
2023/02/21 18:52:10;;;;;;;;;;;;;;;;;;5028653;28;11608;-73
2023/02/21 18:54:35;;;;;;;;;30.50;24.75;;;;;;;;5025301;28;7557;-74
2023/02/21 18:57:01;;;;;;;;;29.25;25.00;;;;;;;;5022230;28;13710;-74
2023/02/21 18:59:26;;;;;;;;;31.75;30.75;;;;;;;;5024545;28;9545;-73
2023/02/21 19:01:52;;;;;;;;;23.75;22.50;;;;;;;;5024279;28;8837;-73
2023/02/21 19:04:18;;;;;;;;;31.00;28.00;;;;;;;;5022256;28;13595;-73
2023/02/21 19:06:43;;;;;;;;;;;;;;;;;;5027872;28;11540;-73
2023/02/21 19:09:08;;;;;;;;;39.40;31.80;;;;;;;;5023625;28;8798;-74
2023/02/21 19:11:33;;;;;;;;;;;;;;;;;;5028088;28;8943;-73
2023/02/21 19:13:58;;;;;;;;;42.20;38.60;;;;;;;;5025654;28;8795;-72
2023/02/21 19:16:24;;;;;;;;;40.50;35.75;;;;;;;;5022467;28;8892;-74
2023/02/21 19:18:52;;;;;;;;;46.00;41.00;;;;;;;;5025552;28;8793;-73
2023/02/21 19:21:18;;;;;;;;;43.75;38.00;;;;;;;;5025208;28;8841;-76
2023/02/21 19:23:43;;;;;;;;;;;;;;;;;;5027436;28;12579;-74
2023/02/21 19:26:09;;;;;;;;;43.50;36.25;;;;;;;;5023934;28;8818;-73
2023/02/21 19:28:34;;;;;;;;;;;;;;;;;;5027281;28;9684;-75
2023/02/21 19:30:59;;;;;;;;;45.50;35.75;;;;;;;;5025326;28;9569;-82
2023/02/21 19:33:24;;;;;;;;;44.33;39.00;;;;;;;;5012643;28;13741;-76
2023/02/21 19:35:50;;;;;;;;;42.25;35.50;;;;;;;;5012358;28;8895;-73
2023/02/21 19:38:15;;;;;;;;;45.00;39.50;;;;;;;;5011934;28;8825;-74
2023/02/21 19:40:40;;;;;;;;;;;;;;;;;;5012147;28;9029;-76
2023/02/21 19:43:06;;;;;;;;;36.80;36.40;;;;;;;;5012788;28;7541;-74
2023/02/21 19:45:31;;;;;;;;;39.25;36.00;;;;;;;;5012659;28;8822;-73
2023/02/21 19:47:57;;;;;;;;;49.25;39.25;;;;;;;;5022508;28;13617;-74
2023/02/21 19:50:22;;;;;;;;;49.00;40.75;;;;;;;;5031998;28;9518;-76
2023/02/21 19:52:51;;;;;;;;;52.00;40.33;;;;;;;;5029101;28;13587;-73
2023/02/21 19:55:16;;;;;;;;;52.67;42.33;;;;;;;;5064626;28;8804;-73
2023/02/21 19:57:42;;;;;;;;;51.00;41.00;;;;;;;;5032134;28;12315;-76
2023/02/21 20:00:09;;;;;;;;;56.00;45.00;;;;;;;;5011786;28;8857;-74
2023/02/21 20:02:35;;;;;;;;;58.67;48.67;;;;;;;;5031268;28;8838;-73
2023/02/21 20:05:00;;;;;;;;;;;;;;;;;;5034872;28;8812;-77
2023/02/21 20:07:25;;;;;;;;;52.50;45.25;;;;;;;;5032444;28;8788;-74
2023/02/21 20:09:50;;;;;;;;;56.33;48.00;;;;;;;;5010636;28;13529;-73
2023/02/21 20:12:21;;;;;;;;;62.00;48.00;;;;;;;;5026491;28;8954;-74
2023/02/21 20:14:47;;;;;;;;;61.00;48.33;;;;;;;;5011092;28;8815;-75
2023/02/21 20:17:13;;;;;;;;;65.00;51.33;;;;;;;;5010937;28;8810;-76
2023/02/21 20:19:39;;;;;;;;;69.33;52.00;;;;;;;;5006210;28;13641;-75
2023/02/21 20:22:04;;;;;;;;;;;;;;;;;;5012039;28;9600;-75
2023/02/21 20:24:29;;;;;;;;;65.67;53.67;;;;;;;;5011110;28;8838;-75
2023/02/21 20:26:55;;;;;;;;;70.00;52.00;;;;;;;;5010901;28;8833;-76
2023/02/21 20:29:20;;;;;;;;;64.67;52.00;;;;;;;;5008436;28;8857;-76
2023/02/21 20:31:46;;;;;;;;;73.00;56.67;;;;;;;;5010901;28;9528;-76
2023/02/21 20:34:11;;;;;;;;;71.33;55.67;;;;;;;;5023613;28;13740;-77
2023/02/21 20:36:38;;;;;;;;;72.67;57.00;;;;;;;;5010821;28;9564;-79
2023/02/21 20:39:04;;;;;;;;;73.67;55.33;;;;;;;;5011637;28;8814;-76
2023/02/21 20:41:31;;;;;;;;;75.20;60.40;;;;;;;;5007945;28;13637;-77
2023/02/21 20:43:56;;;;;;;;;;;;;;;;;;5013550;28;8798;-77
2023/02/21 20:46:21;;;;;;;;;77.00;59.67;;;;;;;;5008015;28;8820;-75
2023/02/21 20:48:47;;;;;;;;;73.00;59.00;;;;;;;;5009265;28;13541;-74
2023/02/21 20:51:12;;;;;;;;;76.00;57.67;;;;;;;;5012437;28;8841;-76
2023/02/21 20:53:37;;;;;;;;;;;;;;;;;;5012938;28;8798;-75
2023/02/21 20:56:03;;;;;;;;;69.25;53.50;;;;;;;;5010595;28;9533;-75
2023/02/21 20:58:29;;;;;;;;;69.67;55.00;;;;;;;;5006155;28;13625;-75
2023/02/21 21:00:54;;;;;;;;;70.67;57.00;;;;;;;;5010891;28;8822;-75
2023/02/21 21:03:19;;;;;;;;;71.33;56.67;;;;;;;;5009526;28;8848;-73
2023/02/21 21:05:46;;;;;;;;;47.33;39.67;;;;;;;;5010735;28;8825;-74
2023/02/21 21:08:12;;;;;;;;;72.33;55.67;;;;;;;;5010732;28;8826;-75
2023/02/21 21:10:37;;;;;;;;;68.67;55.00;;;;;;;;5009531;28;8834;-75
2023/02/21 21:13:03;;;;;;;;;68.33;53.33;;;;;;;;5008844;28;8834;-75
2023/02/21 21:15:28;;;;;;;;;64.33;53.33;;;;;;;;5013422;28;8933;-75
2023/02/21 21:17:53;;;;;;;;;;;;;;;;;;5013116;28;8927;-74
2023/02/21 21:20:19;;;;;;;;;67.00;53.67;;;;;;;;5009758;28;8806;-75
2023/02/21 21:22:45;;;;;;;;;;;;;;;;;;5012718;28;8869;-75
2023/02/21 21:25:10;;;;;;;;;;;;;;;;;;5013491;28;8838;-75
2023/02/21 21:27:35;;;;;;;;;;;;;;;;;;5027732;28;7517;-74
